createdAt,value
2023-04-24T00:03:09.370Z,18.35
2023-04-24T00:06:18.189Z,22.65
2023-04-24T00:09:23.536Z,20.48
2023-04-24T00:12:29.326Z,23.23
2023-04-24T00:15:34.337Z,21.65
2023-04-24T00:18:42.717Z,21.10
2023-04-24T00:21:47.731Z,20.23
2023-04-24T00:24:53.054Z,17.90
2023-04-24T00:27:58.349Z,21.00
2023-04-24T00:31:05.257Z,20.83
2023-04-24T00:34:14.890Z,16.52
2023-04-24T00:37:20.234Z,17.48
2023-04-24T00:40:25.416Z,19.00
2023-04-24T00:43:30.760Z,19.05
2023-04-24T00:46:36.964Z,15.85
2023-04-24T00:49:45.343Z,16.25
2023-04-24T00:52:50.710Z,16.35
2023-04-24T00:55:57.511Z,16.77
2023-04-24T00:59:03.020Z,15.60
2023-04-24T01:02:10.015Z,14.35
2023-04-24T01:05:20.265Z,14.57
2023-04-24T01:08:27.631Z,16.60
2023-04-24T01:11:33.051Z,14.93
2023-04-24T01:14:38.848Z,15.50
2023-04-24T01:17:43.895Z,13.70
2023-04-24T01:20:52.923Z,15.18
2023-04-24T01:24:02.217Z,15.07
2023-04-24T01:27:07.824Z,12.05
2023-04-24T01:30:13.513Z,11.25
2023-04-24T01:33:19.937Z,14.93
2023-04-24T01:36:27.186Z,14.55
2023-04-24T01:39:38.578Z,14.38
2023-04-24T01:42:45.141Z,13.68
2023-04-24T01:45:50.567Z,13.93
2023-04-24T01:48:56.030Z,12.70
2023-04-24T01:52:04.302Z,14.25
2023-04-24T01:55:14.464Z,13.95
2023-04-24T01:58:22.156Z,12.52
2023-04-24T02:01:27.928Z,11.32
2023-04-24T02:04:34.397Z,12.07
2023-04-24T02:07:39.846Z,12.13
2023-04-24T02:10:48.269Z,11.90
2023-04-24T02:13:53.399Z,10.65
2023-04-24T02:17:02.175Z,11.90
2023-04-24T02:20:07.806Z,12.45
2023-04-24T02:23:16.510Z,15.60
2023-04-24T02:26:24.133Z,12.15
2023-04-24T02:29:29.498Z,13.20
2023-04-24T02:32:36.282Z,14.95
2023-04-24T02:35:46.599Z,13.23
2023-04-24T02:38:51.907Z,12.90
2023-04-24T02:42:02.945Z,13.75
2023-04-24T02:45:09.838Z,12.45
2023-04-24T02:48:16.684Z,17.35
2023-04-24T02:51:24.174Z,16.88
2023-04-24T02:54:31.625Z,16.55
2023-04-24T02:57:39.775Z,17.30
2023-04-24T03:00:48.250Z,18.05
2023-04-24T03:03:53.987Z,17.67
2023-04-24T03:07:02.416Z,16.67
2023-04-24T03:10:08.962Z,16.60
2023-04-24T03:13:19.591Z,16.50
2023-04-24T03:16:26.712Z,14.10
2023-04-24T03:19:32.785Z,16.85
2023-04-24T03:22:38.074Z,12.80
2023-04-24T03:25:44.098Z,12.05
2023-04-24T03:28:54.005Z,11.02
2023-04-24T03:35:07.924Z,12.30
2023-04-24T03:38:19.076Z,9.27
2023-04-24T03:41:24.099Z,7.50
2023-04-24T03:44:32.483Z,8.40
2023-04-24T03:47:37.577Z,8.07
2023-04-24T03:50:44.346Z,9.70
2023-04-24T03:53:51.775Z,8.27
2023-04-24T03:56:57.098Z,10.32
2023-04-24T04:00:07.558Z,7.82
2023-04-24T04:03:14.515Z,7.07
2023-04-24T04:06:32.170Z,7.43
2023-04-24T04:09:41.747Z,7.63
2023-04-24T04:12:48.597Z,7.82
2023-04-24T04:15:56.606Z,8.77
2023-04-24T04:19:02.189Z,8.30
2023-04-24T04:22:09.356Z,8.05
2023-04-24T04:25:20.891Z,8.18
2023-04-24T04:28:26.280Z,6.78
2023-04-24T04:31:38.233Z,6.80
2023-04-24T04:34:46.604Z,7.05
2023-04-24T04:37:52.473Z,9.68
2023-04-24T04:40:58.254Z,8.23
2023-04-24T04:44:07.962Z,7.32
2023-04-24T04:47:17.467Z,6.35
2023-04-24T04:50:24.162Z,7.00
2023-04-24T04:53:33.774Z,7.40
2023-04-24T04:56:38.748Z,6.70
2023-04-24T04:59:44.353Z,8.55
2023-04-24T05:02:52.474Z,8.70
2023-04-24T05:06:01.962Z,8.55
2023-04-24T05:09:08.740Z,8.18
2023-04-24T05:12:14.245Z,11.82
2023-04-24T05:15:20.586Z,12.20
2023-04-24T05:18:29.061Z,11.57
2023-04-24T05:21:34.276Z,10.18
2023-04-24T05:24:50.411Z,11.90
2023-04-24T05:36:31.595Z,13.15
2023-04-24T05:39:53.188Z,16.95
2023-04-24T05:43:26.746Z,18.27
2023-04-24T05:47:16.037Z,15.32
2023-04-24T05:50:28.557Z,16.55
2023-04-24T05:53:38.520Z,15.32
2023-04-24T05:56:46.680Z,14.50
2023-04-24T05:59:54.518Z,12.85
2023-04-24T06:03:07.056Z,12.88
2023-04-24T06:06:33.215Z,14.73
2023-04-24T06:13:51.024Z,18.80
2023-04-24T06:17:13.745Z,17.10
2023-04-24T06:21:02.436Z,17.35
2023-04-24T06:24:31.231Z,16.13
2023-04-24T06:31:10.941Z,18.25
2023-04-24T06:34:16.309Z,20.90
2023-04-24T06:37:23.079Z,20.75
2023-04-24T06:40:32.108Z,20.33
2023-04-24T06:43:40.154Z,24.23
2023-04-24T06:46:45.417Z,23.40
2023-04-24T06:49:52.185Z,23.90
2023-04-24T06:52:57.423Z,23.95
2023-04-24T06:56:03.329Z,20.17
2023-04-24T06:59:12.794Z,23.02
2023-04-24T07:02:18.179Z,23.40
2023-04-24T07:05:25.942Z,23.65
2023-04-24T07:08:31.999Z,21.15
2023-04-24T07:11:39.206Z,20.33
2023-04-24T07:14:47.448Z,20.70
2023-04-24T07:17:52.575Z,18.65
2023-04-24T07:20:58.027Z,21.05
2023-04-24T07:24:03.107Z,21.98
2023-04-24T07:27:08.694Z,19.50
2023-04-24T07:30:16.814Z,21.75
2023-04-24T07:33:22.511Z,21.85
2023-04-24T07:36:31.001Z,20.38
2023-04-24T07:39:37.057Z,18.55
2023-04-24T07:42:45.605Z,18.98
2023-04-24T07:45:53.715Z,16.65
2023-04-24T07:49:12.465Z,18.75
2023-04-24T07:52:19.216Z,14.25
2023-04-24T07:55:26.443Z,14.13
2023-04-24T07:58:35.151Z,14.90
2023-04-24T08:01:42.765Z,13.85
2023-04-24T08:04:50.012Z,12.32
2023-04-24T08:07:55.446Z,13.60
2023-04-24T08:11:03.621Z,13.65
2023-04-24T08:14:11.005Z,12.50
2023-04-24T08:17:20.488Z,11.65
2023-04-24T08:20:28.481Z,11.63
2023-04-24T08:23:33.931Z,10.65
2023-04-24T08:26:38.743Z,10.68
2023-04-24T08:29:44.384Z,10.27
2023-04-24T08:36:11.753Z,10.07
2023-04-24T08:39:18.257Z,10.18
2023-04-24T08:42:26.965Z,11.32
2023-04-24T08:45:32.114Z,10.57
2023-04-24T08:48:40.476Z,11.73
2023-04-24T08:51:48.919Z,10.27
2023-04-24T08:54:54.522Z,10.88
2023-04-24T08:57:59.674Z,10.68
2023-04-24T09:01:07.144Z,11.55
2023-04-24T09:04:16.471Z,11.43
2023-04-24T09:07:23.269Z,10.55
2023-04-24T09:10:31.769Z,9.57
2023-04-24T09:13:37.522Z,8.57
2023-04-24T09:16:42.576Z,9.95
2023-04-24T09:19:52.934Z,8.90
2023-04-24T09:22:58.238Z,8.40
2023-04-24T09:26:06.287Z,9.25
2023-04-24T09:29:11.733Z,7.18
2023-04-24T09:32:26.326Z,8.55
2023-04-24T09:35:37.675Z,8.90
2023-04-24T09:38:43.175Z,9.05
2023-04-24T09:41:48.920Z,7.22
2023-04-24T09:45:04.318Z,10.43
2023-04-24T09:48:11.456Z,7.78
2023-04-24T09:51:36.835Z,9.90
2023-04-24T09:54:45.832Z,6.75
2023-04-24T09:57:53.693Z,8.07
2023-04-24T10:00:59.565Z,7.25
2023-04-24T10:04:05.533Z,6.70
2023-04-24T10:07:14.846Z,6.35
2023-04-24T10:10:20.908Z,7.85
2023-04-24T10:13:26.247Z,8.65
2023-04-24T10:16:35.723Z,7.88
2023-04-24T10:19:43.910Z,10.90
2023-04-24T10:22:57.356Z,7.88
2023-04-24T10:26:04.259Z,8.20
2023-04-24T10:29:13.927Z,8.10
2023-04-24T10:32:19.005Z,7.80
2023-04-24T10:35:27.985Z,9.43
2023-04-24T10:38:38.198Z,8.80
2023-04-24T10:41:47.939Z,8.93
2023-04-24T10:44:53.410Z,9.50
2023-04-24T10:48:05.809Z,8.25
2023-04-24T10:54:34.082Z,8.43
2023-04-24T10:57:40.290Z,10.57
2023-04-24T11:00:46.214Z,7.47
2023-04-24T11:03:55.194Z,8.63
2023-04-24T11:07:01.097Z,9.25
2023-04-24T11:10:09.997Z,7.30
2023-04-24T11:13:18.003Z,10.90
2023-04-24T11:16:30.355Z,11.85
2023-04-24T11:19:38.005Z,13.15
2023-04-24T11:22:43.626Z,13.18
2023-04-24T11:26:11.548Z,13.32
2023-04-24T11:29:20.400Z,14.02
2023-04-24T11:32:29.017Z,13.40
2023-04-24T11:35:39.092Z,15.27
2023-04-24T11:38:44.441Z,14.07
2023-04-24T11:41:52.455Z,13.05
2023-04-24T11:44:59.141Z,13.90
2023-04-24T11:48:04.818Z,13.05
2023-04-24T11:51:11.043Z,13.30
2023-04-24T11:54:18.448Z,12.10
2023-04-24T11:57:30.115Z,11.80
2023-04-24T12:00:36.764Z,12.13
2023-04-24T12:03:44.442Z,11.05
2023-04-24T12:07:04.920Z,10.82
2023-04-24T12:10:10.840Z,10.50
2023-04-24T12:13:20.640Z,10.32
2023-04-24T12:16:26.073Z,10.40
2023-04-24T12:19:33.941Z,10.68
2023-04-24T12:22:52.964Z,10.95
2023-04-24T12:25:58.379Z,9.68
2023-04-24T12:29:08.087Z,10.13
2023-04-24T12:32:20.212Z,9.77
2023-04-24T12:35:26.739Z,9.50
2023-04-24T12:38:42.701Z,10.30
2023-04-24T12:42:08.876Z,9.98
2023-04-24T12:45:17.192Z,11.02
2023-04-24T12:48:24.168Z,11.55
2023-04-24T12:51:29.771Z,9.48
2023-04-24T12:54:39.025Z,10.75
2023-04-24T12:57:47.279Z,9.18
2023-04-24T13:00:55.828Z,10.65
2023-04-24T13:04:01.123Z,9.95
2023-04-24T13:07:09.750Z,7.70
2023-04-24T13:10:16.101Z,6.90
2023-04-24T13:13:23.523Z,7.60
2023-04-24T13:16:31.951Z,7.75
2023-04-24T13:19:39.848Z,6.95
2023-04-24T13:22:45.318Z,7.38
2023-04-24T13:25:50.805Z,7.55
2023-04-24T13:28:55.816Z,9.65
2023-04-24T13:32:04.057Z,8.77
2023-04-24T13:35:09.818Z,9.38
2023-04-24T13:38:15.298Z,9.95
2023-04-24T13:41:20.459Z,9.60
2023-04-24T13:44:26.662Z,10.60
2023-04-24T13:47:36.689Z,11.70
2023-04-24T13:50:42.231Z,10.13
2023-04-24T13:53:47.440Z,12.13
2023-04-24T13:56:54.150Z,11.93
2023-04-24T14:00:02.508Z,12.73
2023-04-24T14:03:12.387Z,13.00
2023-04-24T14:06:17.641Z,12.70
2023-04-24T14:09:23.058Z,13.07
2023-04-24T14:12:28.550Z,12.25
2023-04-24T14:15:40.141Z,12.40
2023-04-24T14:18:49.842Z,16.92
2023-04-24T14:21:56.830Z,12.73
2023-04-24T14:25:03.156Z,12.73
2023-04-24T14:28:10.107Z,11.75
2023-04-24T14:31:15.334Z,10.63
2023-04-24T14:34:24.311Z,13.35
2023-04-24T14:37:32.502Z,11.83
2023-04-24T14:41:02.682Z,10.70
2023-04-24T14:44:07.011Z,12.00
2023-04-24T14:47:12.614Z,14.32
2023-04-24T14:50:22.971Z,11.25
2023-04-24T14:53:29.847Z,10.70
2023-04-24T14:56:36.003Z,11.73
2023-04-24T14:59:41.737Z,11.30
2023-04-24T15:02:58.382Z,12.35
2023-04-24T15:06:12.119Z,11.45
2023-04-24T15:09:18.270Z,12.75
2023-04-24T15:12:23.750Z,12.07
2023-04-24T15:15:29.341Z,10.80
2023-04-24T15:18:35.922Z,12.38
2023-04-24T15:21:45.652Z,11.73
2023-04-24T15:24:52.570Z,10.02
2023-04-24T15:27:58.734Z,11.02
2023-04-24T15:31:05.694Z,9.55
2023-04-24T15:34:11.272Z,11.65
2023-04-24T15:37:20.468Z,19.90
2023-04-24T15:40:28.904Z,21.10
2023-04-24T15:43:35.920Z,9.95
2023-04-24T15:46:45.431Z,10.82
2023-04-24T15:49:50.816Z,12.27
2023-04-24T15:53:00.997Z,9.85
2023-04-24T15:56:06.566Z,10.75
2023-04-24T15:59:13.455Z,10.45
2023-04-24T16:02:21.149Z,9.48
2023-04-24T16:05:26.319Z,14.55
2023-04-24T16:08:34.346Z,13.73
2023-04-24T16:11:39.967Z,14.40
2023-04-24T16:14:45.478Z,10.32
2023-04-24T16:17:50.777Z,12.48
2023-04-24T16:20:56.993Z,11.20
2023-04-24T16:24:04.666Z,16.58
2023-04-24T16:27:10.116Z,16.23
2023-04-24T16:30:18.405Z,15.93
2023-04-24T16:33:26.614Z,18.42
2023-04-24T16:36:31.905Z,18.52
2023-04-24T16:39:44.227Z,18.30
2023-04-24T16:42:51.654Z,25.00
2023-04-24T16:45:58.287Z,19.50
2023-04-24T16:49:06.269Z,20.23
2023-04-24T16:52:11.705Z,20.65
2023-04-24T16:55:21.267Z,20.02
2023-04-24T16:58:28.825Z,20.45
2023-04-24T17:01:36.633Z,15.60
2023-04-24T17:04:45.933Z,17.27
2023-04-24T17:07:50.973Z,17.60
2023-04-24T17:11:00.145Z,19.33
2023-04-24T17:14:06.445Z,18.60
2023-04-24T17:17:11.989Z,17.90
2023-04-24T17:20:22.867Z,21.38
2023-04-24T17:23:29.348Z,18.23
2023-04-24T17:26:37.653Z,14.25
2023-04-24T17:29:43.392Z,13.38
2023-04-24T17:32:51.317Z,14.00
2023-04-24T17:35:57.471Z,14.75
2023-04-24T17:39:06.632Z,13.13
2023-04-24T17:42:14.602Z,11.10
2023-04-24T17:45:19.550Z,12.10
2023-04-24T17:48:25.381Z,11.43
2023-04-24T17:51:30.346Z,9.85
2023-04-24T17:54:35.702Z,11.35
2023-04-24T17:57:43.310Z,11.52
2023-04-24T18:00:53.189Z,10.55
2023-04-24T18:03:58.482Z,9.45
2023-04-24T18:07:04.038Z,11.32
2023-04-24T18:10:09.926Z,11.23
2023-04-24T18:13:17.929Z,10.65
2023-04-24T18:16:26.039Z,11.25
2023-04-24T18:19:31.580Z,10.35
2023-04-24T18:22:37.253Z,11.88
2023-04-24T18:25:50.406Z,10.35
2023-04-24T18:28:58.035Z,9.23
2023-04-24T18:32:06.029Z,9.13
2023-04-24T18:35:13.406Z,9.02
2023-04-24T18:38:18.730Z,6.85
2023-04-24T18:41:23.946Z,8.48
2023-04-24T18:44:32.114Z,8.68
2023-04-24T18:47:37.096Z,9.90
2023-04-24T18:50:42.579Z,7.97
2023-04-24T18:53:47.618Z,6.75
2023-04-24T18:56:53.470Z,9.18
2023-04-24T19:00:01.099Z,7.05
2023-04-24T19:03:08.861Z,7.07
2023-04-24T19:06:14.008Z,7.90
2023-04-24T19:09:19.454Z,8.02
2023-04-24T19:12:24.588Z,6.85
2023-04-24T19:15:33.928Z,6.90
2023-04-24T19:18:38.982Z,8.20
2023-04-24T19:21:44.441Z,8.10
2023-04-24T19:24:49.563Z,7.72
2023-04-24T19:27:56.381Z,9.30
2023-04-24T19:31:06.248Z,8.98
2023-04-24T19:34:11.869Z,7.95
2023-04-24T19:37:16.897Z,9.10
2023-04-24T19:40:22.659Z,7.70
2023-04-24T19:43:27.639Z,8.15
2023-04-24T19:46:37.113Z,9.35
2023-04-24T19:49:42.114Z,11.02
2023-04-24T19:52:50.825Z,9.13
2023-04-24T19:55:55.856Z,7.65
2023-04-24T19:59:02.622Z,9.07
2023-04-24T20:02:10.709Z,8.02
2023-04-24T20:05:16.320Z,8.05
2023-04-24T20:08:21.424Z,9.73
2023-04-24T20:11:26.809Z,7.75
2023-04-24T20:14:33.167Z,8.65
2023-04-24T20:17:43.361Z,9.68
2023-04-24T20:20:48.378Z,8.32
2023-04-24T20:23:57.205Z,7.15
2023-04-24T20:27:02.430Z,8.43
2023-04-24T20:30:12.990Z,7.35
2023-04-24T20:33:20.979Z,8.85
2023-04-24T20:36:26.315Z,8.27
2023-04-24T20:39:31.542Z,8.15
2023-04-24T20:42:40.628Z,9.60
2023-04-24T20:45:45.630Z,8.52
2023-04-24T20:48:56.028Z,7.65
2023-04-24T20:55:11.976Z,7.80
2023-04-24T20:58:18.571Z,7.53
2023-04-24T21:01:26.164Z,7.88
2023-04-24T21:04:37.714Z,9.65
2023-04-24T21:07:46.623Z,7.50
2023-04-24T21:10:55.102Z,9.23
2023-04-24T21:14:00.657Z,8.38
2023-04-24T21:17:05.740Z,8.65
2023-04-24T21:20:14.760Z,8.52
2023-04-24T21:23:19.838Z,9.32
2023-04-24T21:26:25.280Z,7.30
2023-04-24T21:29:30.308Z,9.73
2023-04-24T21:32:36.798Z,7.13
2023-04-24T21:35:45.300Z,8.35
2023-04-24T21:38:51.116Z,10.10
2023-04-24T21:41:56.255Z,5.93
2023-04-24T21:45:01.662Z,6.45
2023-04-24T21:48:07.120Z,6.88
2023-04-24T21:51:16.882Z,6.35
2023-04-24T21:54:22.636Z,5.97
2023-04-24T21:57:31.046Z,6.28
2023-04-24T22:00:36.976Z,6.80
2023-04-24T22:03:42.635Z,6.95
2023-04-24T22:06:53.498Z,6.00
2023-04-24T22:09:58.905Z,7.57
2023-04-24T22:13:04.226Z,7.63
2023-04-24T22:16:11.906Z,5.03
2023-04-24T22:19:16.972Z,6.40
2023-04-24T22:22:25.219Z,6.32
2023-04-24T22:25:30.283Z,7.50
2023-04-24T22:28:37.036Z,7.43
2023-04-24T22:31:42.487Z,8.07
2023-04-24T22:34:47.956Z,6.78
2023-04-24T22:37:59.785Z,6.90
2023-04-24T22:41:05.220Z,5.97
2023-04-24T22:44:10.492Z,6.85
2023-04-24T22:47:16.039Z,8.57
2023-04-24T22:50:21.029Z,6.20
2023-04-24T22:53:29.122Z,5.72
2023-04-24T22:56:36.446Z,6.72
2023-04-24T22:59:43.229Z,6.90
2023-04-24T23:02:50.921Z,5.22
2023-04-24T23:05:59.158Z,6.60
2023-04-24T23:09:07.804Z,6.65
2023-04-24T23:12:13.140Z,8.90
2023-04-24T23:15:18.245Z,5.40
2023-04-24T23:18:23.639Z,5.95
2023-04-24T23:21:28.905Z,5.85
2023-04-24T23:24:36.966Z,5.07
2023-04-24T23:27:42.139Z,6.28
2023-04-24T23:30:47.467Z,7.00
2023-04-24T23:33:52.486Z,4.65
2023-04-24T23:36:59.436Z,4.03
2023-04-24T23:40:07.532Z,3.95
2023-04-24T23:43:12.995Z,2.63
2023-04-24T23:46:18.414Z,3.83
2023-04-24T23:49:26.390Z,3.30
2023-04-24T23:52:31.762Z,2.95
2023-04-24T23:55:41.930Z,2.92
2023-04-24T23:58:48.535Z,4.28
